Terminal Aerodrome Forecast
Issued by NWS

Home | Current Version | Previous Version | Text Only | Print | Product List | Glossary On
Versions: 1 2 3 4 5 6 7 8 9 10 11 12 13 14 15 16 17 18 19 20
000
FTUS43 KDVN 210520
TAFBRL
TAF
KBRL 210520Z 2106/2206 25008KT P6SM SKC
     FM211500 29016G25KT P6SM SCT040
     FM211700 28019G28KT P6SM SCT050
     FM220100 31012KT P6SM VCSH BKN040=

USA.gov is the U.S. government's official web portal to all federal, state and local government web resources and services.